createdAt,value
2019-02-28T00:01:40.135Z,97054.85
2019-02-28T00:05:42.205Z,97045.41
2019-02-28T00:09:44.249Z,97033.66
2019-02-28T00:13:46.135Z,97034.34
2019-02-28T00:17:48.042Z,97030.13
2019-02-28T00:21:49.937Z,97026.88
2019-02-28T00:25:52.861Z,97020.02
2019-02-28T00:29:54.748Z,97020.36
2019-02-28T00:33:56.635Z,97015.80
2019-02-28T00:37:58.599Z,97005.05
2019-02-28T00:42:00.502Z,97010.09
2019-02-28T00:46:02.421Z,97007.32
2019-02-28T00:50:05.346Z,97004.10
2019-02-28T00:54:08.684Z,96993.02
2019-02-28T00:58:10.904Z,96991.07
2019-02-28T01:02:12.884Z,96981.95
2019-02-28T01:06:14.768Z,96971.86
2019-02-28T01:10:17.082Z,96971.39
2019-02-28T01:14:19.005Z,96966.02
2019-02-28T01:18:20.955Z,96962.92
2019-02-28T01:22:22.859Z,96957.87
2019-02-28T01:26:24.763Z,96950.71
2019-02-28T01:30:26.738Z,96953.66
2019-02-28T01:34:32.061Z,96952.02
2019-02-28T01:38:32.704Z,96945.36
2019-02-28T01:42:34.673Z,96942.42
2019-02-28T01:46:36.572Z,96938.69
2019-02-28T01:50:38.501Z,96919.17
2019-02-28T01:54:41.378Z,96909.56
2019-02-28T01:58:43.280Z,96907.44
2019-02-28T02:02:45.202Z,96894.44
2019-02-28T02:06:47.456Z,96896.70
2019-02-28T02:10:49.448Z,96888.27
2019-02-28T02:14:53.045Z,96882.39
2019-02-28T02:18:54.959Z,96868.42
2019-02-28T02:22:56.890Z,96861.90
2019-02-28T02:26:58.810Z,96861.27
2019-02-28T02:36:23.839Z,96837.02
2019-02-28T02:40:25.759Z,96831.64
2019-02-28T02:44:31.774Z,96829.39
2019-02-28T02:48:31.275Z,96823.86
2019-02-28T02:52:33.200Z,96810.83
2019-02-28T02:56:40.668Z,96812.64
2019-02-28T03:00:38.719Z,96812.80
2019-02-28T03:04:40.672Z,96815.89
2019-02-28T03:08:42.583Z,96809.23
2019-02-28T03:12:44.668Z,96810.20
2019-02-28T03:16:46.582Z,96801.09
2019-02-28T03:20:48.506Z,96800.78
2019-02-28T03:24:52.072Z,96799.13
2019-02-28T03:28:55.265Z,96792.97
2019-02-28T03:32:57.166Z,96793.63
2019-02-28T03:36:59.078Z,96791.16
2019-02-28T03:41:01.446Z,96788.74
2019-02-28T03:45:03.836Z,96792.61
2019-02-28T03:49:11.015Z,96786.94
2019-02-28T03:53:09.411Z,96788.09
2019-02-28T03:57:11.395Z,96790.66
2019-02-28T04:01:13.376Z,96785.64
2019-02-28T04:05:15.290Z,96777.19
2019-02-28T04:09:17.207Z,96779.79
2019-02-28T04:13:20.318Z,96773.45
2019-02-28T04:17:22.317Z,96768.23
2019-02-28T04:21:24.234Z,96769.84
2019-02-28T04:25:26.284Z,96766.94
2019-02-28T04:29:31.124Z,96767.59
2019-02-28T04:33:37.352Z,96754.27
2019-02-28T04:37:35.416Z,96749.41
2019-02-28T04:41:37.332Z,96746.95
2019-02-28T04:45:39.238Z,96735.56
2019-02-28T04:49:41.144Z,96733.14
2019-02-28T04:53:43.072Z,96726.64
2019-02-28T04:57:44.994Z,96717.55
2019-02-28T05:01:46.924Z,96713.66
2019-02-28T05:05:48.876Z,96712.98
2019-02-28T05:09:50.780Z,96712.16
2019-02-28T05:13:52.704Z,96715.58
2019-02-28T05:17:55.850Z,96707.78
2019-02-28T05:21:58.247Z,96703.38
2019-02-28T05:26:00.332Z,96716.05
2019-02-28T05:30:02.245Z,96704.68
2019-02-28T05:34:04.494Z,96698.35
2019-02-28T05:38:06.414Z,96701.26
2019-02-28T05:42:08.328Z,96697.05
2019-02-28T05:46:10.303Z,96703.86
2019-02-28T05:50:16.598Z,96698.66
2019-02-28T05:54:17.235Z,96701.57
2019-02-28T05:58:20.854Z,96701.26
2019-02-28T06:02:23.348Z,96705.50
2019-02-28T06:06:26.629Z,96701.57
2019-02-28T06:10:29.500Z,96713.25
2019-02-28T06:14:31.410Z,96710.01
2019-02-28T06:18:33.600Z,96710.31
2019-02-28T06:22:36.300Z,96705.47
2019-02-28T06:26:38.326Z,96696.72
2019-02-28T06:30:41.452Z,96703.20
2019-02-28T06:34:43.841Z,96702.75
2019-02-28T06:38:45.766Z,96704.54
2019-02-28T06:42:47.795Z,96715.89
2019-02-28T06:46:49.690Z,96714.76
2019-02-28T06:50:51.593Z,96710.38
2019-02-28T06:54:54.340Z,96709.41
2019-02-28T06:58:56.412Z,96709.75
2019-02-28T07:02:58.334Z,96700.98
2019-02-28T07:07:00.261Z,96698.70
2019-02-28T07:11:02.181Z,96689.79
2019-02-28T07:15:04.836Z,96683.75
2019-02-28T07:19:06.755Z,96682.78
2019-02-28T07:23:08.682Z,96674.29
2019-02-28T07:27:10.608Z,96674.75
2019-02-28T07:31:12.518Z,96680.69
2019-02-28T07:35:14.786Z,96681.59
2019-02-28T07:39:16.761Z,96677.48
2019-02-28T07:43:19.371Z,96678.64
2019-02-28T07:47:21.328Z,96670.30
2019-02-28T07:51:26.172Z,96664.86
2019-02-28T07:55:27.343Z,96660.25
2019-02-28T07:59:30.466Z,96656.55
2019-02-28T08:03:32.414Z,96662.19
2019-02-28T08:07:34.329Z,96656.73
2019-02-28T08:11:36.255Z,96652.01
2019-02-28T08:15:38.323Z,96647.37
2019-02-28T08:19:40.250Z,96631.79
2019-02-28T08:23:42.145Z,96633.98
2019-02-28T08:27:44.140Z,96639.41
2019-02-28T08:31:46.053Z,96640.43
2019-02-28T08:35:49.031Z,96643.48
2019-02-28T08:39:50.946Z,96651.77
2019-02-28T08:43:52.871Z,96645.86
2019-02-28T08:47:56.764Z,96644.48
2019-02-28T08:51:58.412Z,96638.13
2019-02-28T08:56:00.315Z,96635.94
2019-02-28T09:00:02.259Z,96626.49
2019-02-28T09:04:05.857Z,96648.22
2019-02-28T09:08:07.811Z,96644.31
2019-02-28T09:12:09.864Z,96644.69
2019-02-28T09:16:11.779Z,96586.06
2019-02-28T09:20:17.499Z,96638.07
2019-02-28T09:24:19.456Z,96628.83
2019-02-28T09:28:21.386Z,96633.95
2019-02-28T09:32:23.356Z,96629.88
2019-02-28T09:36:25.272Z,96625.68
2019-02-28T09:40:29.460Z,96621.64
2019-02-28T09:44:31.754Z,96617.02
2019-02-28T09:48:37.218Z,96627.46
2019-02-28T09:52:41.253Z,96620.02
2019-02-28T09:56:44.505Z,96627.52
2019-02-28T10:00:49.289Z,96618.32
2019-02-28T10:04:50.021Z,96623.63
2019-02-28T10:08:51.947Z,96615.61
2019-02-28T10:12:53.877Z,96624.31
2019-02-28T10:16:55.787Z,96614.08
2019-02-28T10:20:58.970Z,96617.28
2019-02-28T10:25:03.553Z,96599.02
2019-02-28T10:29:07.450Z,96598.02
2019-02-28T10:33:09.234Z,96613.30
2019-02-28T10:37:11.147Z,96607.61
2019-02-28T10:41:15.373Z,96602.48
2019-02-28T10:45:17.669Z,96607.32
2019-02-28T10:49:21.094Z,96603.33
2019-02-28T10:53:23.368Z,96615.05
2019-02-28T10:57:25.282Z,96585.03
2019-02-28T11:01:27.208Z,96596.33
2019-02-28T11:05:35.065Z,96589.41
2019-02-28T11:09:36.995Z,96602.99
2019-02-28T11:13:57.723Z,96601.98
2019-02-28T11:18:09.760Z,96582.01
2019-02-28T11:22:11.992Z,96582.29
2019-02-28T11:26:13.986Z,96591.08
2019-02-28T11:30:31.663Z,96592.42
2019-02-28T11:34:34.667Z,96595.63
2019-02-28T11:38:36.594Z,96588.41
2019-02-28T11:42:38.566Z,96575.84
2019-02-28T11:46:40.509Z,96572.68
2019-02-28T11:50:44.944Z,96581.47
2019-02-28T11:54:46.332Z,96566.28
2019-02-28T11:58:51.476Z,96572.92
2019-02-28T12:02:53.522Z,96565.44
2019-02-28T12:06:57.384Z,96572.88
2019-02-28T12:11:01.925Z,96592.66
2019-02-28T12:15:05.987Z,96580.13
2019-02-28T12:19:07.755Z,96571.00
2019-02-28T12:23:09.756Z,96571.87
2019-02-28T12:27:11.688Z,96552.38
2019-02-28T12:31:14.091Z,96558.76
2019-02-28T12:35:16.191Z,96547.53
2019-02-28T12:39:18.155Z,96534.71
2019-02-28T12:43:20.075Z,96537.96
2019-02-28T12:47:22.776Z,96530.12
2019-02-28T12:51:24.709Z,96531.83
2019-02-28T12:55:26.629Z,96539.33
2019-02-28T12:59:28.556Z,96490.11
2019-02-28T13:03:30.468Z,96529.03
2019-02-28T13:07:33.915Z,96537.80
2019-02-28T13:11:36.543Z,96526.55
2019-02-28T13:15:38.531Z,96527.05
2019-02-28T13:19:40.468Z,96530.65
2019-02-28T13:23:42.455Z,96523.09
2019-02-28T13:27:45.242Z,96519.66
2019-02-28T13:31:49.049Z,96521.07
2019-02-28T13:35:51.000Z,96516.91
2019-02-28T13:39:53.000Z,96508.70
2019-02-28T13:43:59.220Z,96512.26
2019-02-28T13:47:58.548Z,96496.59
2019-02-28T13:52:00.541Z,96493.98
2019-02-28T13:56:04.935Z,96506.66
2019-02-28T14:00:14.493Z,96497.78
2019-02-28T14:04:19.395Z,96489.20
2019-02-28T14:08:20.322Z,96490.41
2019-02-28T14:12:22.417Z,96480.56
2019-02-28T14:16:26.932Z,96480.00
2019-02-28T14:20:28.486Z,96485.42
2019-02-28T14:24:32.015Z,96481.91
2019-02-28T14:28:35.613Z,96475.38
2019-02-28T14:32:38.684Z,96470.67
2019-02-28T14:36:41.824Z,96467.94
2019-02-28T14:40:45.201Z,96471.47
2019-02-28T14:44:47.117Z,96486.42
2019-02-28T14:48:49.044Z,96476.36
2019-02-28T14:52:54.295Z,96468.00
2019-02-28T14:56:56.220Z,96471.42
2019-02-28T15:00:58.149Z,96480.06
2019-02-28T15:05:00.057Z,96464.55
2019-02-28T15:09:01.993Z,96459.64
2019-02-28T15:13:05.875Z,96461.61
2019-02-28T15:17:07.816Z,96453.79
2019-02-28T15:21:09.717Z,96447.97
2019-02-28T15:25:21.016Z,96447.42
2019-02-28T15:29:23.384Z,96448.29
2019-02-28T15:33:27.459Z,96445.47
2019-02-28T15:37:33.373Z,96452.74
2019-02-28T15:41:35.016Z,96456.00
2019-02-28T15:45:37.542Z,96449.37
2019-02-28T15:49:41.768Z,96450.19
2019-02-28T15:53:43.168Z,96447.80
2019-02-28T15:57:45.352Z,96452.35
2019-02-28T16:01:47.300Z,96452.09
2019-02-28T16:05:49.239Z,96456.61
2019-02-28T16:09:54.161Z,96452.88
2019-02-28T16:13:57.465Z,96449.67
2019-02-28T16:17:58.950Z,96454.75
2019-02-28T16:22:01.664Z,96458.67
2019-02-28T16:26:04.060Z,96452.28
2019-02-28T16:30:13.711Z,96454.93
2019-02-28T16:34:15.730Z,96444.78
2019-02-28T16:38:17.677Z,96447.17
2019-02-28T16:42:19.694Z,96444.48
2019-02-28T16:46:21.797Z,96445.53
2019-02-28T16:50:23.794Z,96441.23
2019-02-28T16:54:27.788Z,96445.97
2019-02-28T16:58:29.374Z,96450.75
2019-02-28T17:02:31.305Z,96463.50
2019-02-28T17:06:35.658Z,96461.32
2019-02-28T17:10:40.052Z,96464.67
2019-02-28T17:14:41.795Z,96461.36
2019-02-28T17:18:43.721Z,96459.70
2019-02-28T17:22:45.660Z,96459.07
2019-02-28T17:26:49.236Z,96469.61
2019-02-28T17:30:56.768Z,96462.58
2019-02-28T17:34:59.036Z,96468.00
2019-02-28T17:39:01.609Z,96472.20
2019-02-28T17:43:05.212Z,96466.31
2019-02-28T17:47:20.223Z,96478.76
2019-02-28T17:51:37.886Z,96476.59
2019-02-28T17:55:53.184Z,96482.45
2019-02-28T18:00:16.140Z,96485.82
2019-02-28T18:04:46.413Z,96486.63
2019-02-28T18:09:12.636Z,96487.77
2019-02-28T18:13:44.551Z,96490.64
2019-02-28T18:18:28.204Z,96482.41
2019-02-28T18:22:52.870Z,96480.77
2019-02-28T18:27:36.691Z,96483.14
2019-02-28T18:31:38.676Z,96476.20
2019-02-28T18:35:41.380Z,96470.55
2019-02-28T18:39:44.595Z,96470.97
2019-02-28T18:43:46.930Z,96466.44
2019-02-28T18:47:48.874Z,96463.52
2019-02-28T18:51:51.873Z,96467.22
2019-02-28T18:55:53.871Z,96474.86
2019-02-28T18:59:55.806Z,96472.09
2019-02-28T19:03:57.740Z,96464.70
2019-02-28T19:07:59.772Z,96469.56
2019-02-28T19:12:01.821Z,96463.37
2019-02-28T19:16:04.233Z,96463.86
2019-02-28T19:20:10.165Z,96471.83
2019-02-28T19:24:12.095Z,96477.25
2019-02-28T19:28:14.008Z,96482.09
2019-02-28T19:32:15.967Z,96485.69
2019-02-28T19:36:17.910Z,96495.59
2019-02-28T19:40:19.914Z,96498.24
2019-02-28T19:44:21.883Z,96502.41
2019-02-28T19:48:23.794Z,96495.43
2019-02-28T19:52:25.823Z,96497.86
2019-02-28T19:56:27.864Z,96503.64
2019-02-28T20:00:29.872Z,96499.52
2019-02-28T20:04:31.814Z,96512.42
2019-02-28T20:08:33.726Z,96523.79
2019-02-28T20:12:35.731Z,96529.81
2019-02-28T20:16:37.739Z,96546.52
2019-02-28T20:20:39.673Z,96541.37
2019-02-28T20:24:41.685Z,96555.65
2019-02-28T20:28:43.606Z,96568.08
2019-02-28T20:32:45.791Z,96580.98
2019-02-28T20:36:47.986Z,96557.95
2019-02-28T20:40:49.971Z,96577.48
2019-02-28T20:44:52.930Z,96576.75
2019-02-28T20:48:54.862Z,96584.88
2019-02-28T20:52:57.884Z,96583.86
2019-02-28T20:56:59.820Z,96579.58
2019-02-28T21:01:01.839Z,96579.52
2019-02-28T21:05:04.744Z,96587.83
2019-02-28T21:09:07.928Z,96598.91
2019-02-28T21:13:11.458Z,96602.20
2019-02-28T21:17:13.372Z,96593.84
2019-02-28T21:21:15.288Z,96590.82
2019-02-28T21:25:18.887Z,96589.27
2019-02-28T21:29:20.860Z,96591.72
2019-02-28T21:33:22.771Z,96600.63
2019-02-28T21:37:24.940Z,96595.45
2019-02-28T21:41:26.914Z,96590.67
2019-02-28T21:45:30.000Z,96607.86
2019-02-28T21:49:32.951Z,96604.47
2019-02-28T21:53:34.869Z,96601.94
2019-02-28T21:57:36.788Z,96604.36
2019-02-28T22:01:38.763Z,96610.67
2019-02-28T22:05:40.679Z,96598.02
2019-02-28T22:09:42.574Z,96593.20
2019-02-28T22:13:44.488Z,96589.45
2019-02-28T22:17:46.398Z,96591.56
2019-02-28T22:21:48.320Z,96585.64
2019-02-28T22:25:50.247Z,96590.11
2019-02-28T22:29:52.141Z,96596.38
2019-02-28T22:33:59.885Z,96594.24
2019-02-28T22:38:01.794Z,96589.50
2019-02-28T22:42:03.777Z,96585.72
2019-02-28T22:46:05.705Z,96587.71
2019-02-28T22:50:09.911Z,96588.39
2019-02-28T22:54:11.819Z,96579.52
2019-02-28T22:58:13.733Z,96591.88
2019-02-28T23:02:15.781Z,96573.52
2019-02-28T23:06:17.749Z,96566.58
2019-02-28T23:10:20.176Z,96551.77
2019-02-28T23:14:22.082Z,96553.55
2019-02-28T23:18:23.982Z,96557.30
2019-02-28T23:22:25.893Z,96559.62
2019-02-28T23:26:27.968Z,96551.88
2019-02-28T23:31:09.243Z,96548.82
2019-02-28T23:35:16.317Z,96554.12
2019-02-28T23:39:18.221Z,96552.28
2019-02-28T23:43:20.143Z,96542.86
2019-02-28T23:47:22.047Z,96532.59
2019-02-28T23:51:23.946Z,96536.80
2019-02-28T23:55:25.846Z,96534.44
2019-02-28T23:59:27.769Z,96534.35
